Time;durP1;ratioP1;P1;durP2;ratioP2;P2;SDS_P1;SDS_P2;PMS_P1;PMS_P2;Temp;Humidity;BMP_temperature;BMP_pressure;BME280_temperature;BME280_humidity;BME280_pressure;Samples;Min_cycle;Max_cycle;Signal;HPM_P1;HPM_P2
2023/05/31 00:00:13;;;;;;;3.97;2.28;;;17.50;99.90;;;;;;5055056;28;20052;-77
2023/05/31 00:02:39;;;;;;;6.75;2.47;;;17.50;99.90;;;;;;5053313;28;20049;-77
2023/05/31 00:05:07;;;;;;;5.88;2.25;;;17.50;99.90;;;;;;5049731;28;20053;-77
2023/05/31 00:07:33;;;;;;;3.90;2.08;;;17.50;99.90;;;;;;5050730;28;20102;-77
2023/05/31 00:10:00;;;;;;;8.73;2.20;;;17.40;99.90;;;;;;5055446;28;20041;-77
2023/05/31 00:12:27;;;;;;;6.30;1.80;;;17.40;99.90;;;;;;5052438;28;20072;-77
2023/05/31 00:14:54;;;;;;;4.90;1.92;;;17.40;99.90;;;;;;5054000;28;20447;-77
2023/05/31 00:17:20;;;;;;;4.95;2.40;;;17.40;99.90;;;;;;5052455;28;20041;-77
2023/05/31 00:19:50;;;;;;;5.38;3.20;;;17.30;99.90;;;;;;5045680;28;20548;-77
2023/05/31 00:22:17;;;;;;;7.03;2.58;;;17.30;99.90;;;;;;5074806;23;20046;-83
2023/05/31 00:24:44;;;;;;;4.75;2.30;;;17.30;99.90;;;;;;5042022;28;20060;-84
2023/05/31 00:27:11;;;;;;;6.35;2.58;;;17.20;99.90;;;;;;5055916;28;20044;-83
2023/05/31 00:29:37;;;;;;;8.38;2.08;;;17.20;99.90;;;;;;5034184;28;20056;-83
2023/05/31 00:32:04;;;;;;;4.38;2.20;;;17.20;99.90;;;;;;5043093;28;20045;-83
2023/05/31 00:34:31;;;;;;;4.93;2.17;;;17.20;99.90;;;;;;5058110;28;20077;-84
2023/05/31 00:36:58;;;;;;;5.32;2.10;;;17.20;99.90;;;;;;5029746;28;20053;-82
2023/05/31 00:39:25;;;;;;;6.53;3.08;;;17.20;99.90;;;;;;5050545;28;20053;-84
2023/05/31 00:41:52;;;;;;;8.35;2.28;;;17.30;99.90;;;;;;5044090;28;20072;-86
2023/05/31 00:44:18;;;;;;;6.60;2.10;;;17.30;99.90;;;;;;5027549;28;20042;-82
2023/05/31 00:46:46;;;;;;;4.38;2.22;;;17.30;99.90;;;;;;5033110;28;20041;-84
2023/05/31 00:49:13;;;;;;;10.23;2.50;;;17.30;99.90;;;;;;5037526;28;20389;-85
2023/05/31 00:51:40;;;;;;;6.40;2.40;;;17.30;99.90;;;;;;5033015;28;20476;-83
2023/05/31 00:54:07;;;;;;;4.60;2.22;;;17.30;99.90;;;;;;5052417;28;20390;-85
2023/05/31 00:56:34;;;;;;;4.72;2.40;;;17.20;99.90;;;;;;5031143;28;20107;-85
2023/05/31 00:59:01;;;;;;;5.30;2.15;;;17.20;99.90;;;;;;5043814;28;20045;-84
2023/05/31 01:01:32;;;;;;;10.63;2.85;;;17.20;99.90;;;;;;5028876;28;20038;-84
2023/05/31 01:04:01;;;;;;;4.72;1.80;;;17.20;99.90;;;;;;5032890;28;20037;-83
2023/05/31 01:06:32;;;;;;;7.72;2.60;;;17.20;99.90;;;;;;5033801;28;20045;-85
2023/05/31 01:09:04;;;;;;;3.78;2.10;;;17.10;99.90;;;;;;5036301;28;20071;-84
2023/05/31 01:11:50;;;;;;;6.45;2.25;;;17.10;99.90;;;;;;5047173;28;20053;-86
2023/05/31 01:14:54;;;;;;;6.35;2.53;;;17.10;99.90;;;;;;5046234;28;20079;-85
2023/05/31 01:17:52;;;;;;;8.98;2.35;;;17.00;99.90;;;;;;5036940;28;20072;-85
2023/05/31 01:20:22;;;;;;;6.32;2.92;;;17.00;99.90;;;;;;5002224;28;20042;-85
2023/05/31 01:23:03;;;;;;;4.75;2.17;;;16.90;99.90;;;;;;5048718;28;20136;-85
2023/05/31 01:26:12;;;;;;;6.60;2.35;;;16.90;99.90;;;;;;5046318;28;20045;-84
2023/05/31 01:28:41;;;;;;;7.88;2.38;;;16.80;99.90;;;;;;5035093;28;20050;-85
2023/05/31 01:31:11;;;;;;;6.50;2.35;;;16.80;99.90;;;;;;5023131;28;20049;-85
2023/05/31 01:33:39;;;;;;;9.65;2.60;;;16.80;99.90;;;;;;5058102;28;20049;-85
2023/05/31 01:36:06;;;;;;;5.38;2.45;;;16.70;99.90;;;;;;5050365;28;20075;-85
2023/05/31 01:38:33;;;;;;;4.65;2.10;;;16.70;99.90;;;;;;5030485;28;20084;-85
2023/05/31 01:41:01;;;;;;;6.30;2.08;;;16.70;99.90;;;;;;5047937;28;20480;-86
2023/05/31 01:43:28;;;;;;;5.00;2.47;;;16.60;99.90;;;;;;5042471;28;20468;-85
2023/05/31 01:45:57;;;;;;;8.57;2.97;;;16.60;99.90;;;;;;5046984;28;20057;-84
2023/05/31 01:48:26;;;;;;;5.32;2.22;;;16.50;99.90;;;;;;5053866;28;20041;-86
2023/05/31 01:50:55;;;;;;;4.57;2.33;;;16.50;99.90;;;;;;5032084;28;20069;-85
2023/05/31 01:53:22;;;;;;;5.70;3.03;;;16.50;99.90;;;;;;5033772;28;20084;-85
2023/05/31 01:55:50;;;;;;;6.68;2.13;;;16.40;99.90;;;;;;5049252;28;20037;-85
2023/05/31 01:58:18;;;;;;;4.28;2.70;;;16.30;99.90;;;;;;5048638;28;20049;-84
2023/05/31 02:00:45;;;;;;;5.53;2.28;;;16.30;99.90;;;;;;5047418;28;20057;-85
2023/05/31 02:03:12;;;;;;;5.55;2.65;;;16.20;99.90;;;;;;5060866;28;20048;-85
2023/05/31 02:06:00;;;;;;;8.27;2.28;;;16.20;99.90;;;;;;5052898;28;20060;-83
2023/05/31 02:08:27;;;;;;;6.65;2.50;;;16.20;99.90;;;;;;5030727;28;20037;-85
2023/05/31 02:10:54;;;;;;;6.95;2.45;;;16.20;99.90;;;;;;5051869;28;20091;-85
2023/05/31 02:13:25;;;;;;;6.72;2.47;;;16.10;99.90;;;;;;5042593;28;20425;-84
2023/05/31 02:15:55;;;;;;;7.13;2.60;;;16.10;99.90;;;;;;5032524;28;20099;-84
2023/05/31 02:18:23;;;;;;;6.35;3.22;;;16.10;99.90;;;;;;5056244;28;20067;-84
2023/05/31 02:20:49;;;;;;;5.45;2.72;;;16.00;99.90;;;;;;5030973;28;20056;-85
2023/05/31 02:23:16;;;;;;;5.38;2.10;;;16.00;99.90;;;;;;5049463;28;20045;-84
2023/05/31 02:25:47;;;;;;;6.55;3.15;;;16.00;99.90;;;;;;5031412;28;20118;-86
2023/05/31 02:28:14;;;;;;;4.28;2.63;;;15.90;99.90;;;;;;5026168;28;20045;-85
2023/05/31 02:30:41;;;;;;;5.68;2.33;;;15.90;99.90;;;;;;5047665;28;20065;-85
2023/05/31 02:33:08;;;;;;;5.55;3.30;;;15.80;99.90;;;;;;5057213;28;20072;-85
2023/05/31 02:35:35;;;;;;;4.07;2.08;;;15.70;99.90;;;;;;5034011;28;20509;-83
2023/05/31 02:38:02;;;;;;;4.57;2.80;;;15.70;99.90;;;;;;5049840;28;20049;-85
2023/05/31 02:40:29;;;;;;;5.40;2.42;;;15.70;99.90;;;;;;5031743;28;20096;-85
2023/05/31 02:42:56;;;;;;;5.13;2.42;;;15.70;99.90;;;;;;5027995;28;20106;-82
2023/05/31 02:45:22;;;;;;;3.95;2.30;;;15.60;99.90;;;;;;5048047;28;20128;-84
2023/05/31 02:47:49;;;;;;;5.18;2.33;;;15.60;99.90;;;;;;5038364;28;20042;-84
2023/05/31 02:50:16;;;;;;;5.55;2.53;;;15.50;99.90;;;;;;5036139;28;20109;-84
2023/05/31 02:52:42;;;;;;;7.18;2.97;;;15.50;99.90;;;;;;5049779;28;20110;-84
2023/05/31 02:55:09;;;;;;;8.70;2.85;;;15.50;99.90;;;;;;5031660;28;20051;-87
2023/05/31 02:57:36;;;;;;;3.67;2.42;;;15.50;99.90;;;;;;5049883;28;20049;-85
2023/05/31 03:00:10;;;;;;;6.75;2.67;;;15.40;99.90;;;;;;5045523;28;20047;-85
2023/05/31 03:02:38;;;;;;;10.05;3.03;;;15.40;99.90;;;;;;5034777;28;20060;-85
2023/05/31 03:05:06;;;;;;;4.82;2.78;;;15.40;99.90;;;;;;5061534;28;20049;-85
2023/05/31 03:07:33;;;;;;;4.38;2.47;;;15.40;99.90;;;;;;5039754;28;20045;-86
2023/05/31 03:10:00;;;;;;;6.65;2.92;;;15.30;99.90;;;;;;5058596;28;20048;-85
2023/05/31 03:12:26;;;;;;;3.85;2.63;;;15.30;99.90;;;;;;5034894;28;20041;-85
2023/05/31 03:14:53;;;;;;;6.50;2.33;;;15.30;99.90;;;;;;5039255;28;20046;-85
2023/05/31 03:17:20;;;;;;;3.88;2.38;;;15.20;99.90;;;;;;5044875;28;20044;-84
2023/05/31 03:19:47;;;;;;;4.30;2.63;;;15.20;99.90;;;;;;5063625;28;20045;-85
2023/05/31 03:22:13;;;;;;;7.90;2.50;;;15.20;99.90;;;;;;5038631;28;20037;-85
2023/05/31 03:24:40;;;;;;;5.20;2.75;;;15.10;99.90;;;;;;5043525;28;20040;-83
2023/05/31 03:27:07;;;;;;;5.03;2.53;;;15.10;99.90;;;;;;5037082;28;20050;-87
2023/05/31 03:29:40;;;;;;;5.88;2.58;;;15.10;99.90;;;;;;5044652;28;20050;-85
2023/05/31 03:32:07;;;;;;;8.00;3.08;;;15.10;99.90;;;;;;5048830;28;20041;-86
2023/05/31 03:34:34;;;;;;;6.10;2.58;;;15.10;99.90;;;;;;5049310;28;20057;-85
2023/05/31 03:37:02;;;;;;;4.88;2.80;;;14.90;99.90;;;;;;5059547;28;20045;-85
2023/05/31 03:39:28;;;;;;;4.32;2.83;;;14.80;99.90;;;;;;5059491;28;20036;-85
2023/05/31 03:41:56;;;;;;;6.45;2.20;;;14.80;99.90;;;;;;5053217;28;20049;-84
2023/05/31 03:44:22;;;;;;;5.50;2.85;;;14.80;99.90;;;;;;5036992;28;20061;-84
2023/05/31 03:46:50;;;;;;;5.03;2.33;;;14.80;99.90;;;;;;5065085;28;20049;-85
2023/05/31 03:49:16;;;;;;;5.35;2.30;;;14.80;99.90;;;;;;5046797;28;20041;-87
2023/05/31 03:51:43;;;;;;;6.00;2.60;;;14.80;99.90;;;;;;5041504;28;20076;-84
2023/05/31 03:54:10;;;;;;;7.57;2.58;;;14.80;99.90;;;;;;5055935;28;20054;-85
2023/05/31 03:56:37;;;;;;;4.82;2.58;;;14.70;99.90;;;;;;5039705;28;20073;-86
2023/05/31 03:59:03;;;;;;;7.00;3.17;;;14.70;99.90;;;;;;5055047;28;20050;-82
2023/05/31 04:01:32;;;;;;;5.78;2.90;;;14.70;99.90;;;;;;5045819;28;20045;-85
2023/05/31 04:03:59;;;;;;;7.95;2.80;;;14.70;99.90;;;;;;5067933;28;20103;-85
2023/05/31 04:06:26;;;;;;;4.18;2.50;;;14.60;99.90;;;;;;5058399;28;20064;-85
2023/05/31 04:08:53;;;;;;;3.70;2.55;;;14.60;99.90;;;;;;5036828;28;20071;-86
2023/05/31 04:11:20;;;;;;;4.35;2.50;;;14.60;99.90;;;;;;5033200;28;20045;-85
2023/05/31 04:13:47;;;;;;;5.10;2.67;;;14.60;99.90;;;;;;5047506;28;20045;-85
2023/05/31 04:16:13;;;;;;;6.28;2.58;;;14.60;99.90;;;;;;5036179;28;20451;-86
2023/05/31 04:18:40;;;;;;;5.82;2.25;;;14.60;99.90;;;;;;5042262;28;20053;-84
2023/05/31 04:21:07;;;;;;;6.47;2.90;;;14.60;99.90;;;;;;5059302;28;20045;-85
2023/05/31 04:23:36;;;;;;;5.80;2.75;;;14.60;99.90;;;;;;5053505;28;20060;-85
2023/05/31 04:26:03;;;;;;;6.05;2.78;;;14.70;99.90;;;;;;5035691;28;20056;-86
2023/05/31 04:28:31;;;;;;;6.38;3.08;;;14.70;99.90;;;;;;5055294;28;20045;-85
2023/05/31 04:30:58;;;;;;;4.95;2.50;;;14.70;99.90;;;;;;5058751;28;20049;-85
2023/05/31 04:33:29;;;;;;;6.55;2.45;;;14.60;99.90;;;;;;5042614;28;20047;-85
2023/05/31 04:35:57;;;;;;;5.10;2.70;;;14.60;99.90;;;;;;5055422;28;20052;-85
2023/05/31 04:38:27;;;;;;;6.85;3.35;;;14.60;99.90;;;;;;5035944;28;20049;-85
2023/05/31 04:40:56;;;;;;;7.80;3.17;;;14.60;99.90;;;;;;5051498;28;20045;-85
2023/05/31 04:43:25;;;;;;;7.22;2.78;;;14.70;99.90;;;;;;5048354;28;20041;-85
2023/05/31 04:45:53;;;;;;;8.60;3.28;;;14.70;99.90;;;;;;5057169;28;20131;-85
2023/05/31 04:48:20;;;;;;;7.32;2.50;;;14.70;99.90;;;;;;5058968;28;20073;-85
2023/05/31 04:50:48;;;;;;;6.38;2.90;;;14.70;99.90;;;;;;5037343;28;20072;-86
2023/05/31 04:53:14;;;;;;;7.15;2.42;;;14.80;99.90;;;;;;5033505;28;20386;-85
2023/05/31 04:55:41;;;;;;;4.88;2.40;;;14.90;99.90;;;;;;5050746;28;20077;-86
2023/05/31 04:58:08;;;;;;;6.88;2.88;;;15.00;99.90;;;;;;5027583;28;20106;-85
2023/05/31 05:00:36;;;;;;;8.98;3.40;;;15.10;99.90;;;;;;5053336;28;20057;-85
2023/05/31 05:03:03;;;;;;;5.68;2.90;;;15.30;99.90;;;;;;5038604;28;20095;-87
2023/05/31 05:05:31;;;;;;;6.18;3.00;;;15.40;99.90;;;;;;5054658;28;20049;-84
2023/05/31 05:07:58;;;;;;;8.07;3.25;;;15.50;99.90;;;;;;5029116;28;20054;-85
2023/05/31 05:10:25;;;;;;;8.65;2.80;;;15.70;99.90;;;;;;5043850;28;20091;-85
2023/05/31 05:12:52;;;;;;;6.32;2.72;;;15.80;99.90;;;;;;5024741;28;20049;-85
2023/05/31 05:15:18;;;;;;;8.20;2.22;;;15.90;99.90;;;;;;5049091;28;20103;-85
2023/05/31 05:17:45;;;;;;;7.53;2.78;;;16.00;99.90;;;;;;5050381;28;20077;-84
2023/05/31 05:20:13;;;;;;;4.82;2.70;;;16.10;99.90;;;;;;5034819;28;20489;-84
2023/05/31 05:22:41;;;;;;;5.45;2.72;;;16.20;99.90;;;;;;5030382;28;20045;-85
2023/05/31 05:25:08;;;;;;;5.03;2.95;;;16.30;99.90;;;;;;5048347;28;20076;-86
2023/05/31 05:27:35;;;;;;;11.90;3.05;;;16.40;99.90;;;;;;5042200;28;20100;-86
2023/05/31 05:30:03;;;;;;;6.43;2.72;;;16.50;99.90;;;;;;5032053;28;20502;-85
2023/05/31 05:32:29;;;;;;;9.68;3.05;;;16.60;99.90;;;;;;5032937;28;20049;-84
2023/05/31 05:34:56;;;;;;;4.72;2.58;;;16.60;99.90;;;;;;5051318;28;20049;-85
2023/05/31 05:37:23;;;;;;;5.88;2.60;;;16.70;99.90;;;;;;5043047;28;20444;-86
2023/05/31 05:39:50;;;;;;;6.95;2.65;;;16.70;99.90;;;;;;5027152;28;20104;-85
2023/05/31 05:42:16;;;;;;;5.65;2.70;;;16.70;99.90;;;;;;5041494;28;20080;-85
2023/05/31 05:44:43;;;;;;;6.55;2.50;;;16.70;99.90;;;;;;5050024;28;20077;-86
2023/05/31 05:47:10;;;;;;;8.77;2.50;;;16.70;99.90;;;;;;5032137;28;20044;-85
2023/05/31 05:49:36;;;;;;;6.50;2.40;;;16.70;99.90;;;;;;5049907;28;20124;-85
2023/05/31 05:52:03;;;;;;;3.60;2.03;;;16.60;99.90;;;;;;5025739;28;20045;-86
2023/05/31 05:54:30;;;;;;;3.85;2.10;;;16.50;99.90;;;;;;5028405;28;20060;-85
2023/05/31 05:56:57;;;;;;;4.15;2.22;;;16.50;99.90;;;;;;5041075;28;20099;-85
2023/05/31 05:59:23;;;;;;;7.80;2.50;;;16.60;99.90;;;;;;5053933;28;20049;-85
2023/05/31 06:01:50;;;;;;;4.57;2.33;;;16.50;99.90;;;;;;5032378;28;20049;-85
2023/05/31 06:04:17;;;;;;;6.78;2.40;;;16.50;99.90;;;;;;5035239;28;20128;-85
2023/05/31 06:06:44;;;;;;;6.68;2.00;;;16.50;99.90;;;;;;5029693;28;20073;-87
2023/05/31 06:09:12;;;;;;;9.75;2.05;;;16.50;99.90;;;;;;5042656;28;20073;-85
2023/05/31 06:11:39;;;;;;;11.68;2.22;;;16.60;99.90;;;;;;5027073;28;20567;-85
2023/05/31 06:14:06;;;;;;;6.28;2.75;;;16.50;99.90;;;;;;5043781;28;20157;-85
2023/05/31 06:16:33;;;;;;;5.00;1.83;;;16.50;99.90;;;;;;5049484;28;20041;-86
2023/05/31 06:19:00;;;;;;;4.60;2.10;;;16.60;99.90;;;;;;5049926;28;20119;-85
2023/05/31 06:21:26;;;;;;;4.03;1.98;;;16.50;99.90;;;;;;5029819;28;20123;-85
2023/05/31 06:23:53;;;;;;;7.28;3.20;;;16.50;99.90;;;;;;5026517;28;20080;-84
2023/05/31 06:26:20;;;;;;;5.22;2.20;;;16.50;99.90;;;;;;5041323;28;20045;-85
2023/05/31 06:28:46;;;;;;;8.57;2.55;;;16.60;99.90;;;;;;5045243;28;20051;-85
2023/05/31 06:31:13;;;;;;;6.22;2.20;;;16.50;99.90;;;;;;5032714;28;20065;-85
2023/05/31 06:33:40;;;;;;;2.95;2.00;;;16.50;99.90;;;;;;5045954;28;20049;-85
2023/05/31 06:36:07;;;;;;;5.78;2.53;;;16.60;99.90;;;;;;5050805;28;20041;-85
2023/05/31 06:38:33;;;;;;;4.32;1.95;;;16.60;99.90;;;;;;5041256;28;20528;-85
2023/05/31 06:41:00;;;;;;;7.28;2.47;;;16.70;99.90;;;;;;5039154;28;20052;-84
2023/05/31 06:43:27;;;;;;;4.90;2.20;;;16.70;99.90;;;;;;5045946;28;20102;-86
2023/05/31 06:45:54;;;;;;;8.57;1.90;;;16.70;99.90;;;;;;5031969;28;20421;-85
2023/05/31 06:48:20;;;;;;;4.82;2.25;;;16.60;99.90;;;;;;5023989;28;20045;-85
2023/05/31 06:50:47;;;;;;;5.68;2.38;;;16.60;99.90;;;;;;5021555;28;20048;-86
2023/05/31 06:53:14;;;;;;;5.15;2.28;;;16.60;99.90;;;;;;5024258;28;20041;-86
2023/05/31 06:55:41;;;;;;;5.93;2.40;;;16.70;99.90;;;;;;5021041;28;20051;-86
2023/05/31 06:58:08;;;;;;;7.57;2.17;;;16.70;99.90;;;;;;5016155;28;20133;-87
2023/05/31 07:00:34;;;;;;;7.05;2.33;;;16.70;99.90;;;;;;5019846;28;20054;-85
2023/05/31 07:03:01;;;;;;;8.77;2.75;;;16.80;99.90;;;;;;5027859;28;20037;-84
2023/05/31 07:05:30;;;;;;;7.70;2.63;;;16.90;99.90;;;;;;5027274;28;20033;-87
2023/05/31 07:07:56;;;;;;;5.20;1.73;;;16.90;99.90;;;;;;5041641;28;20045;-85
2023/05/31 07:10:23;;;;;;;6.70;2.25;;;17.00;99.90;;;;;;5024873;28;20045;-86
2023/05/31 07:12:50;;;;;;;4.70;1.85;;;17.00;99.90;;;;;;5023624;28;20045;-85
2023/05/31 07:15:17;;;;;;;17.48;2.47;;;17.00;99.90;;;;;;5047880;28;20048;-85
2023/05/31 07:17:44;;;;;;;8.32;2.30;;;17.10;99.90;;;;;;5044301;28;20042;-85
2023/05/31 07:20:13;;;;;;;7.50;2.25;;;17.10;99.90;;;;;;5043322;28;20041;-85
2023/05/31 07:22:39;;;;;;;4.35;2.15;;;17.10;99.90;;;;;;5044737;28;20490;-85
2023/05/31 07:25:07;;;;;;;7.22;2.33;;;17.20;99.90;;;;;;5025637;28;20119;-85
2023/05/31 07:27:34;;;;;;;9.05;2.83;;;17.20;99.90;;;;;;5021981;28;20057;-85
2023/05/31 07:30:00;;;;;;;6.10;2.50;;;17.20;99.90;;;;;;5021440;28;20119;-85
2023/05/31 07:32:27;;;;;;;3.88;1.90;;;17.30;99.90;;;;;;5047325;28;20084;-86
2023/05/31 07:34:54;;;;;;;3.92;3.00;;;17.40;99.90;;;;;;5013137;28;20045;-85
2023/05/31 07:37:30;;;;;;;5.82;2.25;;;17.40;99.90;;;;;;5039963;28;20095;-85
2023/05/31 07:39:56;;;;;;;5.10;2.38;;;17.50;99.90;;;;;;5033330;28;20151;-85
2023/05/31 07:42:23;;;;;;;8.70;2.25;;;17.60;99.90;;;;;;5045756;28;20052;-87
2023/05/31 07:44:50;;;;;;;4.22;2.13;;;17.60;99.90;;;;;;5056150;28;20052;-86
2023/05/31 07:47:17;;;;;;;4.70;2.00;;;17.60;99.90;;;;;;5042863;28;20099;-85
2023/05/31 07:49:44;;;;;;;6.75;2.45;;;17.70;99.90;;;;;;5035528;28;20479;-85
2023/05/31 07:52:11;;;;;;;5.93;2.53;;;17.80;99.90;;;;;;5032322;28;20498;-86
2023/05/31 07:54:38;;;;;;;8.45;2.65;;;17.80;99.90;;;;;;5048770;28;20041;-86
2023/05/31 07:57:05;;;;;;;9.10;2.20;;;17.90;99.90;;;;;;5023298;28;20568;-86
2023/05/31 07:59:32;;;;;;;6.68;1.80;;;17.90;99.90;;;;;;5054253;28;20053;-86
2023/05/31 08:01:59;;;;;;;12.98;3.00;;;17.90;99.90;;;;;;5028682;28;20055;-85
2023/05/31 08:04:26;;;;;;;7.22;2.60;;;18.00;99.90;;;;;;5040439;28;20056;-85
2023/05/31 08:06:52;;;;;;;8.32;2.85;;;18.00;99.90;;;;;;5021904;28;20049;-86
2023/05/31 08:09:19;;;;;;;10.20;2.50;;;18.10;99.90;;;;;;5044456;28;20036;-86
2023/05/31 08:11:46;;;;;;;3.85;2.00;;;18.10;99.90;;;;;;5025556;28;20080;-87
2023/05/31 08:14:13;;;;;;;8.55;3.10;;;18.10;99.90;;;;;;5013498;28;20080;-84
2023/05/31 08:16:40;;;;;;;8.55;2.28;;;18.20;99.90;;;;;;5037846;28;20068;-84
2023/05/31 08:19:07;;;;;;;7.20;2.45;;;18.30;99.90;;;;;;5025631;28;20061;-83
2023/05/31 08:21:36;;;;;;;9.45;3.33;;;18.30;99.90;;;;;;5043188;28;20092;-79
2023/05/31 08:24:05;;;;;;;6.55;2.60;;;18.40;99.90;;;;;;5042240;28;20128;-85
2023/05/31 08:26:33;;;;;;;5.10;2.42;;;18.40;99.90;;;;;;5044857;28;20049;-83
2023/05/31 08:29:00;;;;;;;4.95;2.10;;;18.50;99.90;;;;;;5049409;28;20095;-83
2023/05/31 08:31:27;;;;;;;8.38;2.63;;;18.60;99.90;;;;;;5040003;28;20049;-83
2023/05/31 08:33:55;;;;;;;6.28;2.42;;;18.70;99.90;;;;;;5052850;28;20509;-83
2023/05/31 08:36:23;;;;;;;8.90;2.55;;;18.70;99.90;;;;;;5032976;28;20071;-82
2023/05/31 08:38:50;;;;;;;12.25;2.63;;;18.80;99.90;;;;;;5029660;28;20049;-82
2023/05/31 08:41:18;;;;;;;10.73;2.63;;;18.80;99.90;;;;;;5040231;28;20160;-82
2023/05/31 08:43:48;;;;;;;8.30;2.35;;;18.90;99.90;;;;;;5054005;28;20390;-83
2023/05/31 08:46:15;;;;;;;10.18;2.83;;;19.00;99.90;;;;;;5037950;28;20048;-83
2023/05/31 08:48:45;;;;;;;4.80;2.28;;;19.00;99.90;;;;;;5048418;28;20456;-83
2023/05/31 08:51:14;;;;;;;12.55;3.03;;;19.10;99.90;;;;;;5045301;28;20046;-83
2023/05/31 08:53:43;;;;;;;12.53;2.90;;;19.20;99.90;;;;;;5040460;28;20065;-83
2023/05/31 08:56:13;;;;;;;7.68;2.38;;;19.20;99.90;;;;;;5042615;28;20073;-85
2023/05/31 08:58:42;;;;;;;5.28;2.55;;;19.30;99.90;;;;;;5023267;28;20103;-85
2023/05/31 09:01:10;;;;;;;3.90;2.05;;;19.40;99.90;;;;;;5045396;28;20052;-83
2023/05/31 09:03:38;;;;;;;6.00;2.40;;;19.40;99.90;;;;;;5053348;28;20106;-84
2023/05/31 09:06:05;;;;;;;8.32;3.03;;;19.50;99.90;;;;;;5044226;28;20061;-83
2023/05/31 09:08:33;;;;;;;9.40;2.45;;;19.50;99.90;;;;;;5026405;28;20049;-82
2023/05/31 09:11:02;;;;;;;7.72;2.50;;;19.60;99.90;;;;;;5048471;28;20127;-84
2023/05/31 09:13:29;;;;;;;12.25;2.80;;;19.70;99.90;;;;;;5059464;28;20037;-86
2023/05/31 09:15:57;;;;;;;5.43;2.40;;;19.70;99.90;;;;;;5052227;28;20041;-80
2023/05/31 09:18:29;;;;;;;4.63;2.00;;;19.80;99.90;;;;;;5045933;28;20064;-84
2023/05/31 09:20:56;;;;;;;10.20;2.38;;;19.90;99.90;;;;;;5045608;28;20328;-83
2023/05/31 09:23:23;;;;;;;8.10;2.50;;;20.00;99.90;;;;;;5048179;28;20052;-87
2023/05/31 09:25:51;;;;;;;6.82;2.92;;;20.00;99.90;;;;;;5028648;28;20469;-82
2023/05/31 09:28:20;;;;;;;7.50;2.40;;;20.10;99.90;;;;;;5042830;28;20049;-80
2023/05/31 09:31:05;;;;;;;7.18;2.72;;;20.10;99.90;;;;;;5031642;28;20049;-82
2023/05/31 09:33:42;;;;;;;9.38;3.45;;;20.20;99.90;;;;;;5050310;28;20079;-82
2023/05/31 09:36:11;;;;;;;7.95;2.80;;;20.30;99.90;;;;;;5035849;28;20041;-80
2023/05/31 09:38:38;;;;;;;3.90;2.50;;;20.30;99.90;;;;;;5040834;28;20053;-82
2023/05/31 09:41:21;;;;;;;4.82;2.58;;;20.40;99.90;;;;;;5033492;28;20045;-82
2023/05/31 09:43:49;;;;;;;5.65;2.45;;;20.50;99.90;;;;;;5042123;28;20411;-83
2023/05/31 09:46:20;;;;;;;9.68;2.60;;;20.50;99.90;;;;;;5040202;28;20045;-80
2023/05/31 09:49:08;;;;;;;5.55;2.17;;;20.50;99.90;;;;;;5059188;28;20072;-79
2023/05/31 09:51:36;;;;;;;8.30;2.80;;;20.60;99.90;;;;;;5027329;28;20073;-84
2023/05/31 09:54:10;;;;;;;6.75;2.45;;;20.70;99.90;;;;;;5025199;28;20042;-82
2023/05/31 09:56:39;;;;;;;9.27;2.83;;;20.80;99.90;;;;;;5046942;28;20049;-83
2023/05/31 09:59:07;;;;;;;5.22;2.20;;;20.80;99.90;;;;;;5046366;28;20053;-81
2023/05/31 10:01:35;;;;;;;4.90;2.20;;;20.90;99.90;;;;;;5044040;28;20049;-82
2023/05/31 10:04:03;;;;;;;13.48;2.53;;;20.90;99.90;;;;;;5049902;28;20076;-81
2023/05/31 10:06:34;;;;;;;10.98;2.67;;;21.00;99.90;;;;;;5047702;28;20041;-83
2023/05/31 10:09:05;;;;;;;9.88;2.67;;;21.10;99.90;;;;;;5047494;28;20041;-82
2023/05/31 10:11:34;;;;;;;4.80;2.25;;;21.10;99.90;;;;;;5049139;28;20048;-81
2023/05/31 10:14:06;;;;;;;5.82;2.42;;;21.10;99.90;;;;;;5057409;28;20454;-84
2023/05/31 10:16:42;;;;;;;7.82;2.45;;;21.20;99.90;;;;;;5050456;28;20041;-84
2023/05/31 10:19:11;;;;;;;4.88;2.40;;;21.20;99.90;;;;;;5032340;28;20137;-82
2023/05/31 10:21:42;;;;;;;9.07;3.03;;;21.30;99.90;;;;;;5043744;28;20050;-81
2023/05/31 10:24:33;;;;;;;6.53;2.95;;;21.40;99.90;;;;;;5025255;28;20061;-79
2023/05/31 10:27:08;;;;;;;5.57;2.47;;;21.40;99.90;;;;;;5044928;28;20080;-82
2023/05/31 10:29:45;;;;;;;7.80;2.53;;;21.50;99.90;;;;;;5053758;28;20040;-81
2023/05/31 10:32:31;;;;;;;8.13;2.65;;;21.60;99.90;;;;;;5029764;28;20041;-85
2023/05/31 10:34:58;;;;;;;6.05;2.03;;;21.60;99.90;;;;;;5048981;28;20045;-80
2023/05/31 10:37:25;;;;;;;7.32;2.70;;;21.70;99.90;;;;;;5045930;28;20037;-82
2023/05/31 10:40:01;;;;;;;9.57;2.42;;;21.80;99.90;;;;;;5053121;28;21256;-83
2023/05/31 10:42:31;;;;;;;7.78;2.42;;;21.90;99.90;;;;;;5055184;28;20045;-83
2023/05/31 10:45:15;;;;;;;;;;;22.00;99.90;;;;;;5055037;28;20090;-82
2023/05/31 10:48:05;;;;;;;6.07;2.78;;;22.00;99.90;;;;;;5036506;28;19921;-82
2023/05/31 10:50:32;;;;;;;7.93;2.50;;;22.10;99.90;;;;;;5041735;28;20045;-83
2023/05/31 10:53:12;;;;;;;5.10;2.50;;;22.20;99.90;;;;;;5033662;28;20053;-83
2023/05/31 10:55:43;;;;;;;8.80;2.40;;;22.30;99.90;;;;;;5027453;28;20076;-81
2023/05/31 10:58:30;;;;;;;6.10;2.60;;;22.40;99.90;;;;;;5036441;28;20045;-79
2023/05/31 11:01:02;;;;;;;5.15;2.28;;;22.50;99.90;;;;;;5054925;28;20079;-83
2023/05/31 11:03:31;;;;;;;8.25;3.35;;;22.50;99.90;;;;;;5030498;28;20069;-83
2023/05/31 11:06:01;;;;;;;7.93;2.75;;;22.60;99.90;;;;;;5042727;28;20049;-82
2023/05/31 11:08:28;;;;;;;8.63;3.47;;;22.60;99.90;;;;;;5047339;28;20080;-83
2023/05/31 11:11:31;;;;;;;13.18;2.33;;;22.70;99.90;;;;;;5051687;28;20049;-79
2023/05/31 11:14:10;;;;;;;4.60;2.70;;;22.70;99.90;;;;;;5043163;28;20064;-82
2023/05/31 11:17:03;;;;;;;10.32;3.08;;;22.80;99.90;;;;;;5051903;28;20654;-84
2023/05/31 11:19:34;;;;;;;5.50;2.63;;;22.90;99.90;;;;;;5050417;28;20195;-85
2023/05/31 11:22:08;;;;;;;6.55;2.35;;;23.00;99.90;;;;;;5047897;28;20053;-84
2023/05/31 11:24:50;;;;;;;6.25;2.42;;;23.00;99.90;;;;;;5037572;28;20089;-85
2023/05/31 11:27:22;;;;;;;3.10;1.92;;;23.00;99.90;;;;;;5059696;28;20053;-83
2023/05/31 11:29:52;;;;;;;7.10;2.42;;;23.10;99.90;;;;;;5042439;28;20096;-83
2023/05/31 11:32:39;;;;;;;6.03;3.22;;;23.10;99.90;;;;;;5049315;28;20531;-83
2023/05/31 11:35:09;;;;;;;5.57;2.25;;;23.20;99.90;;;;;;5051352;28;20483;-82
2023/05/31 11:37:37;;;;;;;5.72;2.65;;;23.40;99.90;;;;;;5030922;28;20045;-82
2023/05/31 11:40:10;;;;;;;5.25;2.40;;;23.40;99.90;;;;;;5026672;28;20541;-82
2023/05/31 11:42:41;;;;;;;8.80;2.80;;;23.40;99.90;;;;;;5035956;28;20563;-82
2023/05/31 11:45:10;;;;;;;6.60;2.38;;;23.50;99.90;;;;;;5048358;28;20049;-81
2023/05/31 11:47:43;;;;;;;6.95;2.80;;;23.60;99.90;;;;;;5045583;28;20054;-81
2023/05/31 11:50:16;;;;;;;6.03;2.58;;;23.60;99.90;;;;;;5057112;28;20056;-82
2023/05/31 11:52:43;;;;;;;5.47;2.35;;;23.60;99.90;;;;;;5040379;28;20064;-84
2023/05/31 11:55:12;;;;;;;10.88;2.95;;;23.60;99.90;;;;;;5045778;28;20080;-80
2023/05/31 11:57:44;;;;;;;6.80;2.40;;;23.60;99.90;;;;;;5030593;28;20045;-82
2023/05/31 12:00:12;;;;;;;7.47;2.60;;;23.60;99.90;;;;;;5053205;28;20052;-81
2023/05/31 12:02:40;;;;;;;7.15;2.83;;;23.60;99.90;;;;;;5037234;28;20045;-83
2023/05/31 12:05:12;;;;;;;17.67;3.05;;;23.60;99.90;;;;;;5031509;28;20302;-83
2023/05/31 12:07:39;;;;;;;4.38;2.45;;;23.70;99.90;;;;;;5043247;28;20052;-85
2023/05/31 12:10:07;;;;;;;6.63;2.80;;;23.90;99.90;;;;;;5040703;28;20049;-83
2023/05/31 12:12:35;;;;;;;6.65;2.50;;;24.10;98.70;;;;;;5036419;28;20045;-81
2023/05/31 12:15:02;;;;;;;5.00;2.90;;;24.20;99.30;;;;;;5039476;28;20048;-84
2023/05/31 12:17:32;;;;;;;8.68;2.90;;;24.40;99.20;;;;;;5052696;28;20072;-83
2023/05/31 12:19:59;;;;;;;;;;;24.50;99.90;;;;;;5049343;28;20052;-86
2023/05/31 12:22:26;;;;;;;3.38;2.38;;;24.60;98.60;;;;;;5016738;28;19921;-83
2023/05/31 12:24:55;;;;;;;3.80;2.55;;;24.60;99.20;;;;;;5047861;28;20046;-83
2023/05/31 12:27:25;;;;;;;5.07;2.60;;;24.70;99.50;;;;;;5041895;28;20523;-84
2023/05/31 12:30:16;;;;;;;4.88;2.70;;;24.70;99.70;;;;;;5025628;28;20053;-84
2023/05/31 12:32:46;;;;;;;4.90;2.55;;;24.70;98.70;;;;;;5033608;28;20524;-83
2023/05/31 12:35:13;;;;;;;11.13;2.67;;;24.80;99.10;;;;;;5048478;28;20045;-83
2023/05/31 12:37:42;;;;;;;6.75;2.95;;;24.70;99.60;;;;;;5053205;28;20049;-83
2023/05/31 12:40:09;;;;;;;6.93;2.85;;;24.80;99.30;;;;;;5035423;28;20076;-83
2023/05/31 12:42:37;;;;;;;6.28;2.97;;;24.90;99.10;;;;;;5043844;28;20293;-83
2023/05/31 12:45:04;;;;;;;4.55;2.60;;;24.90;98.20;;;;;;5055001;28;20048;-80
2023/05/31 12:47:36;;;;;;;7.20;2.55;;;25.00;98.40;;;;;;5031424;28;20050;-81
2023/05/31 12:50:06;;;;;;;7.28;2.63;;;25.00;98.20;;;;;;5039787;28;20069;-81
2023/05/31 12:52:34;;;;;;;5.50;2.72;;;25.00;98.60;;;;;;5048361;28;20113;-80
2023/05/31 12:55:01;;;;;;;5.10;2.30;;;25.00;97.90;;;;;;5050882;28;20175;-83